Time;durP1;ratioP1;P1;durP2;ratioP2;P2;SDS_P1;SDS_P2;PMS_P1;PMS_P2;Temp;Humidity;BMP_temperature;BMP_pressure;BME280_temperature;BME280_humidity;BME280_pressure;Samples;Min_cycle;Max_cycle;Signal;HPM_P1;HPM_P2
2023/08/06 00:00:03;;;;;;;2.63;2.05;;;;;;;15.27;100.00;100705.19;5020515;28;20188;-50
2023/08/06 00:02:34;;;;;;;5.20;2.67;;;;;;;15.14;100.00;100697.81;5025894;28;20271;-49
2023/08/06 00:04:59;;;;;;;5.22;2.42;;;;;;;15.08;100.00;100697.31;5023383;28;20176;-48
2023/08/06 00:07:25;;;;;;;2.95;2.30;;;;;;;14.94;100.00;100688.19;5019001;28;20200;-49
2023/08/06 00:09:50;;;;;;;4.18;2.10;;;;;;;14.89;100.00;100690.31;5023646;28;20749;-49
2023/08/06 00:12:16;;;;;;;10.35;2.50;;;;;;;14.90;100.00;100683.94;5020828;28;20310;-50
2023/08/06 00:14:42;;;;;;;6.00;2.78;;;;;;;14.93;100.00;100691.84;5023106;28;20608;-48
2023/08/06 00:17:08;;;;;;;3.20;2.40;;;;;;;14.87;100.00;100686.84;5021610;28;20688;-50
2023/08/06 00:19:33;;;;;;;3.70;2.38;;;;;;;14.87;100.00;100688.63;5020780;28;20185;-51
2023/08/06 00:21:59;;;;;;;4.55;2.75;;;;;;;14.89;100.00;100689.41;5015242;23;20231;-46
2023/08/06 00:24:24;;;;;;;7.53;2.72;;;;;;;14.92;100.00;100689.25;5006893;28;20226;-47
2023/08/06 00:26:50;;;;;;;3.20;2.13;;;;;;;14.91;100.00;100692.91;5020030;28;20205;-45
2023/08/06 00:29:15;;;;;;;5.43;2.78;;;;;;;14.82;100.00;100687.09;5002412;28;20197;-47
2023/08/06 00:31:41;;;;;;;5.35;2.58;;;;;;;14.84;100.00;100687.00;5002106;28;20211;-46
2023/08/06 00:34:07;;;;;;;5.32;3.00;;;;;;;14.70;100.00;100681.53;5002927;28;20683;-45
2023/08/06 00:36:32;;;;;;;5.38;3.00;;;;;;;14.71;100.00;100677.88;5012331;28;20272;-42
2023/08/06 00:38:58;;;;;;;4.68;2.40;;;;;;;14.68;100.00;100684.31;4996893;28;20177;-45
2023/08/06 00:41:23;;;;;;;3.80;2.65;;;;;;;14.76;100.00;100675.81;5000248;28;20177;-46
2023/08/06 00:43:49;;;;;;;4.93;2.42;;;;;;;14.81;100.00;100676.41;4987867;28;20681;-42
2023/08/06 00:46:14;;;;;;;9.23;2.20;;;;;;;14.69;100.00;100680.66;4996915;28;20185;-43
2023/08/06 00:48:41;;;;;;;4.57;2.88;;;;;;;14.64;100.00;100682.75;5012015;28;20216;-46
2023/08/06 00:51:11;;;;;;;3.42;2.67;;;;;;;14.68;100.00;100692.41;4984216;28;20701;-44
2023/08/06 00:53:38;;;;;;;3.13;2.60;;;;;;;14.70;100.00;100690.50;5019094;28;20184;-43
2023/08/06 00:56:04;;;;;;;4.13;2.65;;;;;;;14.66;100.00;100688.94;5000349;28;20181;-44
2023/08/06 00:58:30;;;;;;;4.43;2.97;;;;;;;14.69;100.00;100685.19;4996904;28;20246;-43
2023/08/06 01:00:55;;;;;;;6.68;2.60;;;;;;;14.73;100.00;100676.81;4988117;28;20193;-43
2023/08/06 01:03:21;;;;;;;3.83;2.95;;;;;;;14.78;100.00;100682.84;4998467;28;20756;-45
2023/08/06 01:05:46;;;;;;;3.50;2.38;;;;;;;14.82;100.00;100668.22;4995062;28;20291;-42
2023/08/06 01:08:28;;;;;;;4.28;2.50;;;;;;;14.80;100.00;100675.53;4981746;28;20221;-45
2023/08/06 01:10:53;;;;;;;5.40;2.33;;;;;;;14.76;100.00;100675.81;4986747;28;20184;-44
2023/08/06 01:13:27;;;;;;;8.73;2.80;;;;;;;14.71;100.00;100665.25;5000487;28;20263;-44
2023/08/06 01:15:59;;;;;;;6.13;2.50;;;;;;;14.65;100.00;100671.03;5012959;28;20538;-46
2023/08/06 01:18:25;;;;;;;5.32;3.38;;;;;;;14.59;100.00;100665.97;5007814;28;20193;-44
2023/08/06 01:20:51;;;;;;;3.70;2.55;;;;;;;14.59;100.00;100660.59;4998323;28;20215;-43
2023/08/06 01:23:18;;;;;;;6.45;2.90;;;;;;;14.63;100.00;100659.47;5002564;28;20196;-46
2023/08/06 01:26:36;;;;;;;5.45;2.78;;;;;;;14.64;100.00;100661.19;4996750;28;20662;-42
2023/08/06 01:29:17;;;;;;;4.78;2.53;;;;;;;14.71;100.00;100653.59;4993640;28;20221;-44
2023/08/06 01:31:47;;;;;;;5.05;2.80;;;;;;;14.83;100.00;100656.47;5001848;28;20181;-43
2023/08/06 01:34:23;;;;;;;3.20;2.42;;;;;;;14.74;100.00;100656.16;4998604;28;20190;-44
2023/08/06 01:36:52;;;;;;;5.68;3.00;;;;;;;14.73;100.00;100660.66;4996446;28;20348;-45
2023/08/06 01:39:20;;;;;;;3.45;2.60;;;;;;;14.82;100.00;100648.44;4999698;28;20173;-44
2023/08/06 01:41:47;;;;;;;4.30;2.60;;;;;;;14.72;100.00;100655.38;5005452;28;20168;-46
2023/08/06 01:44:14;;;;;;;4.18;2.63;;;;;;;14.73;100.00;100649.84;4986288;28;20247;-44
2023/08/06 01:46:39;;;;;;;11.93;2.97;;;;;;;14.66;100.00;100648.47;4972424;28;20185;-44
2023/08/06 01:49:06;;;;;;;4.25;2.90;;;;;;;14.71;100.00;100637.44;5002854;28;20192;-45
2023/08/06 01:51:32;;;;;;;3.75;2.92;;;;;;;14.59;100.00;100626.41;5004213;28;20555;-43
2023/08/06 01:53:57;;;;;;;5.82;3.03;;;;;;;14.55;100.00;100632.94;5004012;28;20181;-43
2023/08/06 01:56:23;;;;;;;7.68;3.33;;;;;;;14.53;100.00;100631.25;5002578;28;20178;-45
2023/08/06 01:58:48;;;;;;;8.15;3.33;;;;;;;14.60;100.00;100624.56;5001532;28;20601;-44
2023/08/06 02:01:14;;;;;;;6.20;2.78;;;;;;;14.60;100.00;100632.66;4983572;28;20560;-42
2023/08/06 02:03:39;;;;;;;7.07;3.00;;;;;;;14.56;100.00;100636.50;5016101;28;20644;-45
2023/08/06 02:06:05;;;;;;;5.50;3.05;;;;;;;14.55;100.00;100634.75;5018907;28;20201;-44
2023/08/06 02:08:30;;;;;;;7.25;3.55;;;;;;;14.54;100.00;100632.97;5003407;28;20695;-44
2023/08/06 02:10:56;;;;;;;5.28;3.13;;;;;;;14.57;100.00;100630.16;5000713;28;20184;-44
2023/08/06 02:13:21;;;;;;;5.25;3.10;;;;;;;14.54;100.00;100622.19;5004787;28;20177;-44
2023/08/06 02:15:49;;;;;;;4.97;3.13;;;;;;;14.54;100.00;100624.88;4999305;28;20164;-43
2023/08/06 02:18:16;;;;;;;6.85;3.35;;;;;;;14.53;100.00;100625.84;5003036;28;20197;-43
2023/08/06 02:20:42;;;;;;;5.25;3.10;;;;;;;14.51;100.00;100625.06;5004000;28;20196;-44
2023/08/06 02:23:08;;;;;;;4.70;3.10;;;;;;;14.57;100.00;100633.72;5001342;28;20199;-45
2023/08/06 02:25:34;;;;;;;7.93;3.45;;;;;;;14.52;100.00;100635.78;5001824;28;20169;-44
2023/08/06 02:27:59;;;;;;;5.85;3.40;;;;;;;14.54;100.00;100632.97;4998107;28;20210;-42
2023/08/06 02:30:25;;;;;;;7.25;3.85;;;;;;;14.61;100.00;100624.50;4998573;28;20591;-43
2023/08/06 02:32:50;;;;;;;8.82;3.80;;;;;;;14.70;100.00;100614.13;5005992;28;20180;-45
2023/08/06 02:35:16;;;;;;;6.63;3.35;;;;;;;14.63;100.00;100611.78;4980879;28;20603;-44
2023/08/06 02:37:41;;;;;;;4.95;3.42;;;;;;;14.68;100.00;100616.03;4980134;28;20197;-44
2023/08/06 02:40:08;;;;;;;5.80;3.10;;;;;;;14.71;100.00;100611.31;4990673;28;20510;-45
2023/08/06 02:42:33;;;;;;;6.55;3.20;;;;;;;14.61;100.00;100602.06;5015797;28;20212;-44
2023/08/06 02:44:59;;;;;;;8.52;3.33;;;;;;;14.55;100.00;100599.72;5002281;28;20688;-43
2023/08/06 02:47:24;;;;;;;6.07;3.42;;;;;;;14.58;100.00;100603.09;4999045;28;20334;-44
2023/08/06 02:49:50;;;;;;;5.63;3.15;;;;;;;14.55;100.00;100599.72;4990168;28;20186;-45
2023/08/06 02:52:16;;;;;;;5.00;3.35;;;;;;;14.48;100.00;100596.47;4998799;28;20260;-46
2023/08/06 02:54:42;;;;;;;6.30;3.83;;;;;;;14.52;100.00;100591.75;5013770;28;20308;-46
2023/08/06 02:57:08;;;;;;;5.80;3.40;;;;;;;14.55;100.00;100589.78;4973991;28;20224;-44
2023/08/06 02:59:35;;;;;;;5.15;3.17;;;;;;;14.49;100.00;100584.72;5020281;28;20173;-44
2023/08/06 03:02:11;;;;;;;4.93;3.28;;;;;;;14.43;100.00;100588.66;4986297;28;20589;-42
2023/08/06 03:04:51;;;;;;;7.60;3.60;;;;;;;14.42;100.00;100575.25;4989766;28;20549;-45
2023/08/06 03:07:20;;;;;;;6.30;3.38;;;;;;;14.39;100.00;100580.84;5015504;28;20236;-42
2023/08/06 03:09:53;;;;;;;5.20;3.47;;;;;;;14.39;100.00;100570.94;4985122;28;20239;-44
2023/08/06 03:12:19;;;;;;;5.43;3.60;;;;;;;14.37;100.00;100570.16;4988443;28;20181;-44
2023/08/06 03:14:45;;;;;;;4.13;2.85;;;;;;;14.48;100.00;100571.34;4997672;28;20272;-44
2023/08/06 03:17:10;;;;;;;5.53;3.00;;;;;;;14.43;100.00;100572.50;4997520;28;20220;-46
2023/08/06 03:19:36;;;;;;;8.23;3.85;;;;;;;14.48;100.00;100569.53;4987692;28;20280;-43
2023/08/06 03:22:03;;;;;;;5.28;3.33;;;;;;;14.49;100.00;100573.06;5001721;28;20697;-44
2023/08/06 03:24:31;;;;;;;6.90;3.20;;;;;;;14.36;100.00;100565.69;4990053;28;20539;-44
2023/08/06 03:26:57;;;;;;;5.68;3.65;;;;;;;14.37;100.00;100567.44;5002993;28;20199;-45
2023/08/06 03:29:24;;;;;;;6.20;4.00;;;;;;;14.26;100.00;100558.25;5015424;28;20725;-42
2023/08/06 03:31:52;;;;;;;8.48;3.50;;;;;;;14.25;100.00;100562.75;4990153;28;20223;-45
2023/08/06 03:34:17;;;;;;;7.03;3.78;;;;;;;14.23;100.00;100564.66;5003310;28;20181;-45
2023/08/06 03:36:44;;;;;;;5.80;3.60;;;;;;;14.21;100.00;100569.28;4999822;28;20235;-45
2023/08/06 03:39:09;;;;;;;8.50;4.03;;;;;;;14.18;100.00;100567.63;4989299;28;20170;-46
2023/08/06 03:41:36;;;;;;;6.10;4.03;;;;;;;14.33;100.00;100563.19;4980159;28;20189;-45
2023/08/06 03:44:03;;;;;;;6.07;3.80;;;;;;;14.31;100.00;100556.16;5000410;28;20180;-44
2023/08/06 03:46:32;;;;;;;4.82;3.47;;;;;;;14.39;100.00;100551.19;4982282;28;20200;-45
2023/08/06 03:48:58;;;;;;;7.50;3.95;;;;;;;14.36;100.00;100554.91;4979660;28;20197;-46
2023/08/06 03:51:24;;;;;;;5.93;3.97;;;;;;;14.26;100.00;100547.47;5015060;28;20550;-42
2023/08/06 03:53:51;;;;;;;4.80;3.67;;;;;;;14.32;100.00;100547.09;4985548;28;20206;-45
2023/08/06 03:56:17;;;;;;;8.27;4.20;;;;;;;14.33;100.00;100544.31;4981841;28;20177;-44
2023/08/06 03:58:42;;;;;;;7.22;3.80;;;;;;;14.32;100.00;100537.22;4989183;28;20502;-44
2023/08/06 04:01:08;;;;;;;6.20;3.63;;;;;;;14.38;100.00;100536.81;4988378;28;20677;-44
2023/08/06 04:03:40;;;;;;;5.88;3.63;;;;;;;14.35;100.00;100537.03;4995521;28;20189;-45
2023/08/06 04:06:06;;;;;;;6.22;4.07;;;;;;;14.46;100.00;100540.91;4999220;28;20326;-43
2023/08/06 04:08:31;;;;;;;5.70;3.72;;;;;;;14.48;100.00;100533.63;4994300;28;20227;-46
2023/08/06 04:10:57;;;;;;;7.13;3.50;;;;;;;14.56;100.00;100523.25;5016858;28;20181;-44
2023/08/06 04:13:22;;;;;;;4.30;3.47;;;;;;;14.56;100.00;100526.84;5003195;28;20586;-43
2023/08/06 04:15:49;;;;;;;9.68;3.60;;;;;;;14.55;100.00;100521.53;5000117;28;20184;-45
2023/08/06 04:18:14;;;;;;;5.80;3.63;;;;;;;14.51;100.00;100517.25;4997582;28;20272;-42
2023/08/06 04:20:47;;;;;;;5.68;3.22;;;;;;;14.53;100.00;100518.03;4983996;28;20192;-45
2023/08/06 04:23:13;;;;;;;6.82;3.35;;;;;;;14.55;100.00;100513.44;4994155;28;20185;-44
2023/08/06 04:25:39;;;;;;;6.07;3.35;;;;;;;14.60;100.00;100505.94;5000440;28;20291;-46
2023/08/06 04:28:05;;;;;;;4.60;3.63;;;;;;;14.61;100.00;100511.25;4974902;28;20221;-45
2023/08/06 04:30:30;;;;;;;6.93;3.40;;;;;;;14.60;100.00;100503.25;4980106;28;20512;-43
2023/08/06 04:32:59;;;;;;;5.43;3.78;;;;;;;14.62;100.00;100514.81;4996741;28;20196;-43
2023/08/06 04:35:25;;;;;;;8.70;3.88;;;;;;;14.61;100.00;100513.94;5014847;28;20196;-43
2023/08/06 04:37:51;;;;;;;7.85;3.75;;;;;;;14.59;100.00;100513.16;4999552;28;20560;-44
2023/08/06 04:40:17;;;;;;;4.63;3.42;;;;;;;14.63;100.00;100503.94;4979500;28;20259;-45
2023/08/06 04:42:43;;;;;;;5.18;3.22;;;;;;;14.71;100.00;100510.69;4986234;28;20656;-46
2023/08/06 04:45:09;;;;;;;5.20;3.42;;;;;;;14.69;100.00;100516.16;5000421;28;20168;-46
2023/08/06 04:47:34;;;;;;;6.25;3.17;;;;;;;14.75;100.00;100510.41;4997848;28;20209;-45
2023/08/06 04:50:00;;;;;;;9.05;3.80;;;;;;;14.78;100.00;100514.72;4995169;28;20177;-45
2023/08/06 04:52:28;;;;;;;7.00;3.58;;;;;;;14.82;100.00;100527.06;4999537;28;20180;-45
2023/08/06 04:54:54;;;;;;;8.32;4.00;;;;;;;14.88;100.00;100515.91;4996227;28;20181;-44
2023/08/06 04:57:20;;;;;;;4.78;3.15;;;;;;;14.92;100.00;100522.00;4978474;28;20195;-44
2023/08/06 04:59:46;;;;;;;8.98;3.53;;;;;;;14.87;100.00;100522.28;4999086;28;20184;-43
2023/08/06 05:02:11;;;;;;;8.38;3.83;;;;;;;14.96;100.00;100516.31;5014501;28;20537;-43
2023/08/06 05:04:37;;;;;;;5.82;3.30;;;;;;;14.96;100.00;100519.03;4999545;28;20173;-44
2023/08/06 05:07:03;;;;;;;5.72;3.15;;;;;;;14.96;100.00;100515.47;5000404;28;20200;-43
2023/08/06 05:09:29;;;;;;;7.65;3.20;;;;;;;14.99;100.00;100520.66;4998838;28;20256;-44
2023/08/06 05:11:54;;;;;;;6.15;2.92;;;;;;;15.00;100.00;100508.91;4997444;28;20284;-45
2023/08/06 05:14:20;;;;;;;6.18;2.88;;;;;;;15.08;100.00;100521.91;4998495;28;20176;-43
2023/08/06 05:16:45;;;;;;;5.60;2.90;;;;;;;15.10;100.00;100510.06;4997228;28;20637;-44
2023/08/06 05:19:10;;;;;;;5.93;2.95;;;;;;;15.13;100.00;100523.38;5002087;28;20618;-46
2023/08/06 05:21:36;;;;;;;6.28;3.15;;;;;;;15.10;100.00;100518.16;5001521;28;20241;-42
2023/08/06 05:24:01;;;;;;;3.97;2.58;;;;;;;15.11;100.00;100525.31;5000128;28;20183;-45
2023/08/06 05:26:27;;;;;;;6.53;2.60;;;;;;;15.15;100.00;100505.25;5005441;28;20246;-44
2023/08/06 05:28:52;;;;;;;7.45;2.55;;;;;;;15.19;100.00;100517.56;5006359;28;20212;-45
2023/08/06 05:31:18;;;;;;;6.38;2.63;;;;;;;15.37;100.00;100509.28;5000987;28;20239;-45
2023/08/06 05:33:44;;;;;;;5.30;2.75;;;;;;;15.35;100.00;100506.72;5009274;28;20177;-44
2023/08/06 05:36:09;;;;;;;4.68;2.40;;;;;;;15.35;100.00;100501.31;5004409;28;20169;-44
2023/08/06 05:38:34;;;;;;;5.85;2.50;;;;;;;15.34;100.00;100504.09;5000861;28;20767;-45
2023/08/06 05:41:00;;;;;;;5.90;2.78;;;;;;;15.33;100.00;100508.63;4985581;28;20189;-45
2023/08/06 05:43:25;;;;;;;5.03;2.55;;;;;;;15.42;100.00;100496.38;5006237;28;20636;-44
2023/08/06 05:45:51;;;;;;;3.42;2.20;;;;;;;15.42;100.00;100502.66;4974820;28;20216;-44
2023/08/06 05:48:17;;;;;;;7.20;2.45;;;;;;;15.45;100.00;100502.44;5002321;28;20679;-45
2023/08/06 05:50:42;;;;;;;6.25;3.00;;;;;;;15.45;100.00;100504.28;5001973;28;20270;-43
2023/08/06 05:53:08;;;;;;;3.70;2.13;;;;;;;15.53;100.00;100493.00;5005116;28;20181;-43
2023/08/06 05:55:34;;;;;;;8.75;2.78;;;;;;;15.53;100.00;100493.84;5006680;28;20180;-45
2023/08/06 05:57:59;;;;;;;3.85;2.58;;;;;;;15.67;100.00;100482.16;5001172;28;20816;-44
2023/08/06 06:00:25;;;;;;;3.33;2.22;;;;;;;15.64;100.00;100491.31;5001526;28;20217;-44
2023/08/06 06:02:50;;;;;;;2.75;2.03;;;;;;;15.73;100.00;100495.28;4997853;28;20682;-46
2023/08/06 06:05:16;;;;;;;5.85;2.17;;;;;;;15.79;100.00;100497.59;5002528;28;20261;-45
2023/08/06 06:07:41;;;;;;;4.25;1.90;;;;;;;15.85;100.00;100502.63;5001686;28;20246;-43
2023/08/06 06:10:07;;;;;;;8.13;2.17;;;;;;;15.81;100.00;100492.09;5005308;28;20191;-45
2023/08/06 06:12:33;;;;;;;5.68;2.30;;;;;;;15.82;100.00;100494.69;4996623;28;20253;-43
2023/08/06 06:15:00;;;;;;;4.22;1.98;;;;;;;15.94;100.00;100490.34;5004764;28;20180;-44
2023/08/06 06:17:26;;;;;;;7.90;2.28;;;;;;;15.89;100.00;100497.84;4998360;28;20197;-43
2023/08/06 06:22:19;;;;;;;5.10;2.20;;;;;;;15.84;100.00;100495.47;4997097;28;20208;-45
2023/08/06 06:24:45;;;;;;;3.42;1.85;;;;;;;15.91;100.00;100497.75;5005311;28;20199;-44
2023/08/06 06:27:10;;;;;;;5.43;2.00;;;;;;;16.00;100.00;100491.75;4999945;28;20304;-43
2023/08/06 06:29:36;;;;;;;7.47;2.08;;;;;;;15.97;100.00;100495.53;4999088;28;20217;-46
2023/08/06 06:32:01;;;;;;;5.13;1.80;;;;;;;15.93;100.00;100503.94;5001822;28;20169;-45
2023/08/06 06:34:27;;;;;;;4.20;2.20;;;;;;;16.02;100.00;100503.31;4983856;28;20203;-46
2023/08/06 06:36:52;;;;;;;3.90;1.80;;;;;;;16.07;100.00;100495.78;4999972;28;20296;-45
2023/08/06 06:39:18;;;;;;;6.80;2.08;;;;;;;16.03;100.00;100494.25;5005626;28;20601;-45
2023/08/06 06:41:44;;;;;;;4.50;1.83;;;;;;;15.98;100.00;100486.47;5003116;28;20169;-43
2023/08/06 06:44:20;;;;;;;6.57;2.67;;;;;;;16.05;100.00;100484.22;4987074;28;20603;-45
2023/08/06 06:46:46;;;;;;;4.20;3.25;;;;;;;16.05;100.00;100495.03;5003667;28;20688;-43
2023/08/06 06:49:11;;;;;;;3.65;2.20;;;;;;;16.09;100.00;100483.00;5003120;28;20208;-46
2023/08/06 06:51:37;;;;;;;7.18;2.10;;;;;;;16.10;100.00;100483.91;4997955;28;20210;-46
2023/08/06 06:54:02;;;;;;;3.25;1.58;;;;;;;16.20;100.00;100488.59;5004590;28;20193;-45
2023/08/06 06:56:28;;;;;;;2.75;1.55;;;;;;;16.30;100.00;100486.13;4993401;28;20268;-45
2023/08/06 06:58:53;;;;;;;2.70;1.48;;;;;;;16.30;100.00;100479.84;4989286;28;20220;-46
2023/08/06 07:01:19;;;;;;;2.88;1.60;;;;;;;16.28;100.00;100488.06;5001417;28;20297;-45
2023/08/06 07:03:44;;;;;;;3.67;1.80;;;;;;;16.26;100.00;100479.19;5002748;28;20663;-45
2023/08/06 07:06:09;;;;;;;4.10;1.75;;;;;;;16.40;100.00;100476.44;5006145;28;20272;-46
2023/08/06 07:08:35;;;;;;;6.57;1.67;;;;;;;16.39;100.00;100479.22;4999347;28;20205;-45
2023/08/06 07:11:05;;;;;;;4.53;1.90;;;;;;;16.39;100.00;100480.09;5003780;28;20193;-46
2023/08/06 07:13:32;;;;;;;2.03;1.58;;;;;;;16.35;100.00;100478.56;5001555;28;20176;-44
2023/08/06 07:15:57;;;;;;;5.10;1.70;;;;;;;16.47;100.00;100480.44;5000501;28;20836;-46
2023/08/06 07:18:23;;;;;;;3.67;1.65;;;;;;;16.45;100.00;100473.41;4997155;28;20197;-44
2023/08/06 07:20:53;;;;;;;4.57;1.70;;;;;;;16.46;100.00;100483.22;4994038;28;20208;-45
2023/08/06 07:23:20;;;;;;;4.18;1.63;;;;;;;16.50;100.00;100486.59;5001806;28;20176;-45
2023/08/06 07:25:46;;;;;;;3.70;1.70;;;;;;;16.51;100.00;100482.91;4980018;28;20637;-46
2023/08/06 07:28:12;;;;;;;4.22;1.95;;;;;;;16.46;100.00;100485.94;4999171;28;20205;-45
2023/08/06 07:30:43;;;;;;;3.15;1.70;;;;;;;16.46;100.00;100475.13;5003418;28;20201;-45
2023/08/06 07:33:08;;;;;;;3.63;1.60;;;;;;;16.49;100.00;100485.75;5004428;28;20177;-47
2023/08/06 07:35:35;;;;;;;4.28;1.48;;;;;;;16.56;100.00;100487.06;4986955;28;20530;-43
2023/08/06 07:38:01;;;;;;;2.90;1.52;;;;;;;16.57;100.00;100477.09;5000581;28;20231;-45
2023/08/06 07:40:27;;;;;;;6.55;1.70;;;;;;;16.54;100.00;100480.88;5002517;28;20227;-47
2023/08/06 07:42:52;;;;;;;6.90;1.67;;;;;;;16.49;99.61;100480.34;5000958;28;20173;-45
2023/08/06 07:45:18;;;;;;;5.03;1.35;;;;;;;16.60;99.74;100485.00;4999189;28;20184;-45
2023/08/06 07:47:44;;;;;;;4.85;1.77;;;;;;;16.70;99.63;100475.25;4994850;28;20192;-45
2023/08/06 07:50:09;;;;;;;2.65;1.75;;;;;;;16.78;99.81;100475.59;4985193;28;20180;-45
2023/08/06 07:52:35;;;;;;;1.70;1.50;;;;;;;16.71;99.56;100471.59;5005757;28;20635;-46
2023/08/06 07:55:04;;;;;;;3.65;1.95;;;;;;;16.82;99.45;100481.72;5004388;28;20179;-47
2023/08/06 07:57:34;;;;;;;1.98;1.40;;;;;;;16.83;99.40;100475.31;5001718;28;20192;-46
2023/08/06 08:00:00;;;;;;;2.97;1.85;;;;;;;16.84;99.06;100474.34;4999736;28;20177;-47
2023/08/06 08:02:26;;;;;;;2.60;1.70;;;;;;;16.80;97.49;100462.00;4998094;28;20176;-44
2023/08/06 08:04:51;;;;;;;3.97;2.10;;;;;;;16.83;96.24;100456.38;5000898;28;20180;-46
2023/08/06 08:07:17;;;;;;;3.28;1.50;;;;;;;16.83;96.26;100465.34;4997816;28;20250;-47
2023/08/06 08:09:42;;;;;;;3.65;1.52;;;;;;;16.78;96.13;100472.03;5002445;28;20181;-46
2023/08/06 08:12:08;;;;;;;1.40;1.30;;;;;;;16.75;95.61;100462.31;5003684;28;20689;-45
2023/08/06 08:14:35;;;;;;;3.53;1.83;;;;;;;16.69;95.70;100463.59;5003554;28;20181;-44
2023/08/06 08:17:05;;;;;;;4.72;2.30;;;;;;;16.71;95.28;100457.22;4998614;28;20675;-47
2023/08/06 08:19:31;;;;;;;1.27;1.17;;;;;;;16.79;95.36;100458.41;5004240;28;20169;-44
2023/08/06 08:21:57;;;;;;;4.72;1.70;;;;;;;16.78;94.76;100451.25;5000475;28;20180;-45
2023/08/06 08:24:25;;;;;;;4.40;1.40;;;;;;;16.84;94.12;100456.28;4998848;28;20180;-46
2023/08/06 08:26:51;;;;;;;3.13;1.67;;;;;;;16.86;94.04;100448.06;4998447;28;20192;-46
2023/08/06 08:29:17;;;;;;;6.00;1.50;;;;;;;16.91;93.68;100450.44;5000782;28;20309;-46
2023/08/06 08:31:43;;;;;;;4.15;1.40;;;;;;;16.97;93.57;100450.88;5003952;28;20180;-44
2023/08/06 08:34:09;;;;;;;3.83;1.60;;;;;;;17.05;93.61;100444.88;4999275;28;20958;-44
2023/08/06 08:36:34;;;;;;;4.97;1.50;;;;;;;16.98;92.59;100449.00;4999257;28;20267;-45
2023/08/06 08:39:00;;;;;;;4.10;1.70;;;;;;;17.08;92.23;100439.28;4987930;28;20685;-45
2023/08/06 08:41:29;;;;;;;3.30;1.20;;;;;;;17.20;91.71;100441.06;4973737;28;20299;-45
2023/08/06 08:43:56;;;;;;;4.35;1.45;;;;;;;17.08;91.68;100447.41;4993541;28;20282;-44
2023/08/06 08:46:22;;;;;;;1.88;1.40;;;;;;;17.16;92.33;100449.53;4983746;28;20231;-44
2023/08/06 08:48:47;;;;;;;1.50;1.13;;;;;;;17.29;92.70;100455.78;5002277;28;20196;-43
2023/08/06 08:51:14;;;;;;;3.80;1.70;;;;;;;17.34;93.14;100439.22;5001702;28;20185;-45
2023/08/06 08:53:42;;;;;;;3.10;1.23;;;;;;;17.46;93.47;100439.19;4998556;28;20314;-43
2023/08/06 08:56:08;;;;;;;6.20;1.48;;;;;;;17.48;92.84;100431.81;4983917;28;20175;-45
2023/08/06 08:58:33;;;;;;;5.35;1.50;;;;;;;17.66;93.15;100436.84;4999637;28;20204;-45
2023/08/06 09:00:59;;;;;;;6.22;1.33;;;;;;;17.68;93.11;100437.59;4994916;28;20280;-44
2023/08/06 09:03:25;;;;;;;2.47;1.40;;;;;;;17.73;93.25;100443.53;4999422;28;20197;-46
2023/08/06 09:05:54;;;;;;;6.00;1.55;;;;;;;17.89;93.81;100443.31;5002021;28;20273;-46
2023/08/06 09:08:24;;;;;;;2.67;1.33;;;;;;;17.64;93.09;100447.78;4981437;28;20196;-46
2023/08/06 09:10:52;;;;;;;2.47;1.30;;;;;;;17.73;92.70;100448.09;4998256;28;20197;-46
2023/08/06 09:13:17;;;;;;;2.28;1.52;;;;;;;17.83;92.40;100444.63;5002840;28;20204;-44
2023/08/06 09:15:44;;;;;;;4.93;1.60;;;;;;;17.89;91.24;100441.47;5002471;28;20185;-46
2023/08/06 09:18:11;;;;;;;3.70;1.33;;;;;;;17.65;91.73;100438.69;4995377;28;20581;-44
2023/08/06 09:20:38;;;;;;;3.60;1.50;;;;;;;17.71;93.15;100448.22;5002457;28;20189;-44
2023/08/06 09:23:10;;;;;;;5.03;1.60;;;;;;;17.50;93.78;100450.66;5003150;28;20659;-45
2023/08/06 09:25:40;;;;;;;5.18;1.70;;;;;;;17.43;94.56;100452.09;4997777;28;20180;-44
2023/08/06 09:28:06;;;;;;;4.78;1.45;;;;;;;17.49;94.57;100455.22;4999207;28;20197;-44
2023/08/06 09:30:34;;;;;;;2.92;1.58;;;;;;;17.48;95.04;100458.03;5002485;28;20232;-46
2023/08/06 09:32:59;;;;;;;5.82;1.33;;;;;;;17.36;95.13;100457.09;5003554;28;20219;-45
2023/08/06 09:35:28;;;;;;;5.63;1.80;;;;;;;17.48;95.15;100452.63;4999653;28;20172;-45
2023/08/06 09:37:54;;;;;;;2.30;1.40;;;;;;;17.50;94.90;100453.38;5000942;28;20246;-45
2023/08/06 09:40:32;;;;;;;4.93;1.60;;;;;;;17.59;94.48;100460.81;5002725;28;20181;-45
2023/08/06 09:42:58;;;;;;;2.15;1.50;;;;;;;17.61;93.48;100453.44;4988247;28;20185;-44
2023/08/06 09:45:31;;;;;;;2.45;1.77;;;;;;;17.50;93.00;100447.97;5001592;28;20271;-45
2023/08/06 09:47:57;;;;;;;5.30;1.77;;;;;;;17.51;92.79;100449.69;5000501;28;20570;-46
2023/08/06 09:50:30;;;;;;;3.97;1.63;;;;;;;17.72;92.94;100447.25;4996924;28;20187;-46
2023/08/06 09:52:56;;;;;;;1.92;1.58;;;;;;;17.34;91.39;100442.81;5001756;28;20189;-43
2023/08/06 09:55:22;;;;;;;2.15;1.63;;;;;;;17.38;90.82;100449.72;4998549;28;20549;-46
2023/08/06 09:57:49;;;;;;;1.83;1.40;;;;;;;17.35;90.37;100447.22;5002503;28;20196;-44
2023/08/06 10:00:16;;;;;;;3.60;1.50;;;;;;;17.46;90.39;100452.72;4983241;28;20240;-46
2023/08/06 10:02:43;;;;;;;3.22;1.67;;;;;;;17.41;90.43;100443.22;5001929;28;20208;-46
2023/08/06 10:05:09;;;;;;;3.45;1.67;;;;;;;17.62;90.10;100438.06;5005887;28;20668;-45
2023/08/06 10:07:36;;;;;;;3.03;1.65;;;;;;;17.56;89.71;100431.25;5006499;28;20192;-44
2023/08/06 10:10:02;;;;;;;1.90;1.70;;;;;;;17.66;89.26;100440.41;4988211;28;20560;-44
2023/08/06 10:12:31;;;;;;;3.15;1.77;;;;;;;17.82;88.79;100439.31;5005414;28;20219;-46
2023/08/06 10:15:00;;;;;;;4.72;1.77;;;;;;;17.80;88.86;100435.81;5006344;28;20682;-43
2023/08/06 10:17:27;;;;;;;3.40;1.50;;;;;;;17.56;89.06;100438.50;5006814;28;20196;-45
2023/08/06 10:19:55;;;;;;;2.17;1.52;;;;;;;17.60;87.96;100430.06;5001735;28;20222;-46
2023/08/06 10:22:21;;;;;;;3.28;1.85;;;;;;;17.65;87.39;100427.88;5007318;28;20188;-46
2023/08/06 10:24:49;;;;;;;5.75;1.88;;;;;;;17.76;87.61;100424.34;5004829;28;20180;-45
2023/08/06 10:27:34;;;;;;;2.72;1.48;;;;;;;17.74;87.27;100422.75;5001868;28;20208;-47
2023/08/06 10:30:21;;;;;;;2.67;1.58;;;;;;;17.59;87.09;100424.75;5003211;28;20235;-47
2023/08/06 10:32:51;;;;;;;5.13;1.60;;;;;;;17.75;87.42;100429.88;5006595;28;20177;-46
2023/08/06 10:35:35;;;;;;;2.63;1.88;;;;;;;17.82;86.75;100418.53;5003241;28;20741;-46
2023/08/06 10:38:21;;;;;;;5.72;2.00;;;;;;;18.00;86.18;100429.81;5003018;28;20217;-45
2023/08/06 10:41:01;;;;;;;3.70;2.15;;;;;;;18.18;85.30;100410.41;5004295;28;20316;-44
2023/08/06 10:43:33;;;;;;;4.70;1.70;;;;;;;18.52;83.54;100406.81;5001685;28;20545;-45
2023/08/06 10:46:01;;;;;;;3.88;1.63;;;;;;;18.51;82.28;100402.34;5003043;28;20557;-47
2023/08/06 10:48:36;;;;;;;4.30;1.73;;;;;;;18.49;81.06;100392.63;4998226;28;20754;-46
2023/08/06 10:51:03;;;;;;;3.90;1.90;;;;;;;18.50;81.71;100395.22;5004224;28;20296;-46
2023/08/06 10:53:28;;;;;;;6.60;1.50;;;;;;;18.36;79.61;100386.41;4986113;28;20288;-47
2023/08/06 10:55:54;;;;;;;5.13;1.30;;;;;;;18.46;79.34;100382.00;5004583;28;20745;-45
2023/08/06 10:58:19;;;;;;;3.72;1.60;;;;;;;18.33;79.75;100382.97;5003096;28;20663;-46
2023/08/06 11:00:45;;;;;;;2.67;1.58;;;;;;;18.56;79.77;100376.72;5005832;28;20180;-46
2023/08/06 11:03:11;;;;;;;2.80;1.45;;;;;;;18.53;80.36;100383.25;4983303;28;20592;-45
2023/08/06 11:05:37;;;;;;;4.72;1.92;;;;;;;18.49;79.96;100384.47;5001034;28;20180;-45
2023/08/06 11:08:02;;;;;;;2.03;1.30;;;;;;;18.82;79.17;100372.81;5000550;28;20246;-44
2023/08/06 11:10:28;;;;;;;1.73;1.48;;;;;;;18.69;77.55;100361.19;5003545;28;20238;-47
2023/08/06 11:12:53;;;;;;;4.70;1.60;;;;;;;18.33;77.45;100365.84;5000102;28;20200;-45
2023/08/06 11:15:20;;;;;;;5.90;1.65;;;;;;;18.59;76.63;100355.63;5002254;28;20196;-47
2023/08/06 11:17:47;;;;;;;4.13;1.65;;;;;;;18.44;76.76;100346.84;4979371;28;20737;-45
2023/08/06 11:20:13;;;;;;;5.50;1.77;;;;;;;18.88;77.72;100360.63;5002773;28;20687;-46